createdAt,value
2022-11-27T00:01:19.154Z,5.53
2022-11-27T00:03:46.517Z,5.47
2022-11-27T00:06:15.756Z,5.10
2022-11-27T00:08:43.664Z,5.57
2022-11-27T00:11:13.116Z,5.13
2022-11-27T00:13:40.297Z,4.97
2022-11-27T00:16:07.971Z,5.10
2022-11-27T00:18:35.425Z,5.50
2022-11-27T00:21:06.472Z,4.83
2022-11-27T00:23:34.252Z,5.17
2022-11-27T00:26:01.396Z,5.10
2022-11-27T00:28:28.882Z,5.27
2022-11-27T00:30:59.787Z,5.37
2022-11-27T00:33:26.952Z,5.47
2022-11-27T00:35:54.059Z,5.80
2022-11-27T00:38:21.279Z,5.23
2022-11-27T00:40:48.751Z,6.07
2022-11-27T00:43:15.810Z,5.50
2022-11-27T00:45:42.873Z,5.73
2022-11-27T00:48:09.907Z,6.40
2022-11-27T00:50:36.973Z,5.80
2022-11-27T00:53:04.084Z,5.93
2022-11-27T00:55:31.137Z,5.87
2022-11-27T00:57:58.173Z,5.70
2022-11-27T01:00:25.301Z,5.73
2022-11-27T01:02:52.412Z,5.33
2022-11-27T01:05:19.500Z,5.30
2022-11-27T01:07:46.654Z,5.50
2022-11-27T01:10:13.772Z,5.00
2022-11-27T01:12:40.811Z,5.10
2022-11-27T01:15:08.211Z,5.40
2022-11-27T01:17:35.279Z,5.20
2022-11-27T01:20:02.348Z,5.57
2022-11-27T01:22:29.439Z,5.73
2022-11-27T01:24:56.481Z,5.87
2022-11-27T01:27:23.560Z,5.33
2022-11-27T01:29:50.610Z,5.77
2022-11-27T01:32:17.722Z,5.40
2022-11-27T01:34:44.773Z,5.30
2022-11-27T01:37:11.844Z,5.10
2022-11-27T01:39:38.893Z,5.40
2022-11-27T01:42:06.009Z,5.53
2022-11-27T01:44:33.019Z,4.83
2022-11-27T01:47:02.507Z,4.57
2022-11-27T01:49:33.642Z,4.97
2022-11-27T01:52:06.914Z,5.10
2022-11-27T01:54:46.272Z,5.10
2022-11-27T01:57:18.516Z,4.70
2022-11-27T01:59:46.905Z,5.30
2022-11-27T02:02:14.236Z,4.97
2022-11-27T02:04:41.587Z,4.83
2022-11-27T02:07:08.870Z,4.77
2022-11-27T02:09:36.041Z,5.33
2022-11-27T02:12:03.062Z,4.93
2022-11-27T02:14:38.633Z,4.93
2022-11-27T02:17:22.299Z,4.60
2022-11-27T02:20:00.224Z,4.37
2022-11-27T02:25:20.222Z,4.83
2022-11-27T02:27:58.456Z,4.53
2022-11-27T02:30:25.636Z,4.70
2022-11-27T02:32:52.665Z,4.80
2022-11-27T02:35:19.735Z,4.63
2022-11-27T02:37:58.833Z,4.57
2022-11-27T02:40:32.233Z,4.53
2022-11-27T02:42:59.255Z,4.53
2022-11-27T02:45:28.322Z,4.33
2022-11-27T02:47:56.685Z,4.40
2022-11-27T02:50:25.364Z,4.80
2022-11-27T02:52:53.939Z,4.30
2022-11-27T02:55:23.822Z,3.90
2022-11-27T02:57:53.420Z,4.30
2022-11-27T03:00:20.537Z,4.33
2022-11-27T03:02:50.509Z,3.80
2022-11-27T03:05:19.645Z,4.30
2022-11-27T03:07:52.973Z,3.77
2022-11-27T03:10:27.573Z,3.90
2022-11-27T03:12:54.678Z,4.03
2022-11-27T03:15:23.594Z,4.00
2022-11-27T03:17:54.317Z,4.00
2022-11-27T03:20:24.572Z,3.83
2022-11-27T03:22:53.351Z,3.30
2022-11-27T03:25:20.482Z,3.70
2022-11-27T03:27:56.449Z,4.83
2022-11-27T03:30:23.504Z,4.00
2022-11-27T03:32:50.644Z,3.30
2022-11-27T03:35:20.741Z,3.80
2022-11-27T03:37:48.228Z,3.70
2022-11-27T03:40:15.862Z,3.30
2022-11-27T03:42:42.890Z,3.30
2022-11-27T03:45:28.627Z,3.80
2022-11-27T03:47:58.832Z,3.43
2022-11-27T03:50:41.257Z,3.10
2022-11-27T03:53:21.825Z,3.23
2022-11-27T03:56:09.960Z,3.40
2022-11-27T03:58:39.724Z,3.07
2022-11-27T04:01:09.405Z,3.57
2022-11-27T04:03:36.770Z,3.40
2022-11-27T04:06:04.245Z,3.10
2022-11-27T04:08:31.684Z,3.40
2022-11-27T04:10:58.742Z,3.30
2022-11-27T04:13:25.804Z,3.30
2022-11-27T04:15:52.976Z,3.20
2022-11-27T04:18:20.017Z,3.23
2022-11-27T04:20:47.106Z,3.10
2022-11-27T04:23:14.197Z,3.30
2022-11-27T04:25:41.224Z,3.00
2022-11-27T04:28:08.348Z,3.20
2022-11-27T04:30:35.387Z,3.07
2022-11-27T04:33:02.490Z,2.70
2022-11-27T04:35:29.524Z,2.80
2022-11-27T04:37:59.900Z,2.90
2022-11-27T04:40:26.963Z,2.70
2022-11-27T04:42:54.100Z,2.87
2022-11-27T04:45:21.210Z,3.07
2022-11-27T04:47:48.479Z,3.00
2022-11-27T04:50:15.655Z,3.00
2022-11-27T04:52:42.695Z,3.00
2022-11-27T04:55:10.046Z,3.13
2022-11-27T04:57:37.096Z,3.13
2022-11-27T05:00:04.789Z,2.97
2022-11-27T05:02:31.909Z,2.57
2022-11-27T05:04:59.078Z,2.90
2022-11-27T05:07:26.230Z,3.20
2022-11-27T05:09:53.339Z,2.90
2022-11-27T05:12:20.407Z,2.77
2022-11-27T05:14:47.486Z,2.90
2022-11-27T05:17:14.591Z,3.20
2022-11-27T05:19:41.680Z,3.00
2022-11-27T05:22:08.753Z,2.80
2022-11-27T05:24:35.851Z,2.70
2022-11-27T05:27:03.056Z,2.60
2022-11-27T05:29:30.246Z,2.77
2022-11-27T05:31:57.414Z,2.90
2022-11-27T05:34:24.529Z,2.90
2022-11-27T05:36:51.571Z,3.23
2022-11-27T05:39:18.635Z,3.20
2022-11-27T05:41:45.711Z,3.40
2022-11-27T05:44:13.987Z,2.83
2022-11-27T05:46:43.373Z,2.90
2022-11-27T05:49:12.274Z,2.87
2022-11-27T05:51:39.432Z,2.60
2022-11-27T05:54:06.562Z,2.63
2022-11-27T05:56:33.690Z,2.53
2022-11-27T05:59:00.795Z,2.83
2022-11-27T06:01:28.297Z,2.80
2022-11-27T06:03:55.346Z,3.07
2022-11-27T06:06:22.492Z,2.70
2022-11-27T06:08:49.529Z,2.50
2022-11-27T06:11:21.133Z,2.70
2022-11-27T06:13:48.840Z,2.40
2022-11-27T06:16:20.587Z,2.90
2022-11-27T06:18:50.712Z,3.10
2022-11-27T06:21:18.109Z,2.73
2022-11-27T06:23:45.718Z,2.47
2022-11-27T06:26:12.842Z,3.10
2022-11-27T06:28:40.900Z,2.70
2022-11-27T06:31:13.097Z,2.77
2022-11-27T06:33:43.213Z,2.97
2022-11-27T06:36:10.328Z,3.33
2022-11-27T06:38:38.064Z,2.60
2022-11-27T06:41:05.144Z,3.07
2022-11-27T06:43:32.316Z,2.80
2022-11-27T06:45:59.907Z,2.60
2022-11-27T06:48:27.027Z,2.80
2022-11-27T06:50:54.079Z,2.87
2022-11-27T06:53:21.199Z,2.93
2022-11-27T06:55:48.312Z,2.70
2022-11-27T06:58:15.487Z,3.20
2022-11-27T07:00:42.560Z,3.37
2022-11-27T07:03:09.698Z,2.90
2022-11-27T07:05:37.084Z,2.50
2022-11-27T07:08:04.298Z,2.93
2022-11-27T07:10:33.999Z,2.70
2022-11-27T07:13:01.300Z,2.67
2022-11-27T07:15:28.758Z,3.00
2022-11-27T07:17:55.861Z,3.07
2022-11-27T07:20:22.907Z,3.10
2022-11-27T07:22:50.029Z,2.90
2022-11-27T07:25:17.162Z,3.40
2022-11-27T07:27:44.279Z,3.33
2022-11-27T07:30:11.541Z,3.40
2022-11-27T07:32:38.647Z,3.27
2022-11-27T07:35:06.350Z,3.50
2022-11-27T07:37:33.978Z,3.37
2022-11-27T07:40:02.945Z,3.00
2022-11-27T07:42:37.954Z,3.10
2022-11-27T07:45:05.470Z,3.40
2022-11-27T07:47:32.516Z,3.67
2022-11-27T07:50:00.410Z,3.43
2022-11-27T07:52:27.687Z,3.67
2022-11-27T07:54:54.813Z,3.33
2022-11-27T07:57:21.956Z,3.60
2022-11-27T07:59:49.027Z,3.83
2022-11-27T08:02:16.117Z,3.87
2022-11-27T08:04:43.624Z,3.70
2022-11-27T08:07:10.965Z,3.87
2022-11-27T08:09:39.341Z,3.90
2022-11-27T08:12:06.857Z,3.83
2022-11-27T08:14:33.928Z,4.00
2022-11-27T08:17:00.983Z,4.07
2022-11-27T08:19:28.127Z,3.70
2022-11-27T08:21:56.221Z,4.47
2022-11-27T08:24:23.267Z,4.27
2022-11-27T08:26:52.089Z,4.13
2022-11-27T08:29:19.136Z,4.47
2022-11-27T08:31:46.265Z,4.93
2022-11-27T08:34:13.546Z,4.90
2022-11-27T08:36:40.648Z,4.40
2022-11-27T08:39:07.784Z,4.87
2022-11-27T08:41:34.875Z,4.50
2022-11-27T08:44:06.697Z,5.10
2022-11-27T08:46:36.948Z,4.53
2022-11-27T08:49:04.017Z,4.77
2022-11-27T08:51:31.096Z,4.50
2022-11-27T08:53:58.146Z,5.00
2022-11-27T08:56:26.127Z,5.03
2022-11-27T08:58:53.445Z,4.63
2022-11-27T09:01:20.558Z,4.63
2022-11-27T09:03:48.352Z,5.47
2022-11-27T09:06:16.969Z,5.20
2022-11-27T09:08:44.343Z,5.17
2022-11-27T09:11:12.797Z,4.93
2022-11-27T09:13:40.359Z,5.80
2022-11-27T09:16:08.584Z,5.77
2022-11-27T09:18:35.735Z,5.50
2022-11-27T09:21:05.305Z,5.10
2022-11-27T09:23:32.504Z,5.87
2022-11-27T09:26:03.845Z,6.20
2022-11-27T09:28:31.820Z,5.77
2022-11-27T09:31:00.225Z,6.70
2022-11-27T09:33:28.164Z,6.30
2022-11-27T09:35:55.239Z,5.97
2022-11-27T09:38:23.651Z,6.63
2022-11-27T09:40:55.531Z,6.53
2022-11-27T09:43:30.450Z,6.27
2022-11-27T09:46:01.333Z,6.50
2022-11-27T09:48:32.875Z,6.17
2022-11-27T09:51:01.378Z,7.03
2022-11-27T09:53:31.443Z,7.30
2022-11-27T09:55:59.578Z,7.03
2022-11-27T09:58:36.514Z,6.07
2022-11-27T10:01:11.308Z,6.87
2022-11-27T10:03:38.865Z,7.40
2022-11-27T10:06:21.239Z,6.97
2022-11-27T10:09:00.641Z,7.27
2022-11-27T10:11:30.552Z,6.83
2022-11-27T10:14:03.339Z,7.40
2022-11-27T10:16:30.394Z,7.20
2022-11-27T10:19:19.412Z,7.40
2022-11-27T10:21:49.923Z,7.77
2022-11-27T10:24:21.880Z,7.60
2022-11-27T10:26:49.644Z,8.80
2022-11-27T10:29:47.119Z,8.57
2022-11-27T10:32:46.640Z,8.53
2022-11-27T10:35:07.776Z,9.27
2022-11-27T10:37:37.624Z,10.37
2022-11-27T10:40:13.332Z,10.10
2022-11-27T10:42:49.486Z,12.10
2022-11-27T10:45:28.208Z,11.40
2022-11-27T10:47:55.364Z,11.30
2022-11-27T10:50:22.436Z,12.73
2022-11-27T10:53:00.767Z,11.60
2022-11-27T10:55:46.369Z,10.43
2022-11-27T10:58:34.253Z,9.83
2022-11-27T11:01:06.861Z,9.17
2022-11-27T11:03:34.155Z,7.23
2022-11-27T11:06:21.532Z,7.00
2022-11-27T11:08:50.119Z,5.20
2022-11-27T11:11:25.786Z,5.00
2022-11-27T11:13:52.932Z,4.20
2022-11-27T11:16:24.604Z,3.60
2022-11-27T11:18:53.384Z,3.10
2022-11-27T11:21:30.548Z,2.90
2022-11-27T11:24:00.201Z,2.60
2022-11-27T11:26:56.660Z,2.90
2022-11-27T11:29:23.769Z,2.60
2022-11-27T11:31:50.925Z,2.70
2022-11-27T11:34:29.044Z,2.90
2022-11-27T11:37:02.257Z,2.40
2022-11-27T11:39:30.948Z,2.93
2022-11-27T11:41:58.528Z,3.00
2022-11-27T11:44:31.489Z,2.73
2022-11-27T11:46:58.566Z,2.77
2022-11-27T11:49:26.748Z,2.40
2022-11-27T11:51:53.773Z,3.50
2022-11-27T11:54:39.134Z,3.27
2022-11-27T11:57:10.287Z,3.10
2022-11-27T11:59:43.756Z,3.07
2022-11-27T12:02:21.433Z,3.00
2022-11-27T12:04:48.634Z,2.63
2022-11-27T12:07:34.351Z,3.03
2022-11-27T12:10:15.007Z,2.83
2022-11-27T12:13:02.299Z,2.80
2022-11-27T12:15:33.900Z,2.90
2022-11-27T12:18:19.420Z,2.90
2022-11-27T12:20:55.876Z,2.97
2022-11-27T12:23:32.916Z,2.97
2022-11-27T12:26:09.163Z,2.97
2022-11-27T12:28:58.987Z,3.10
2022-11-27T12:31:26.621Z,3.30
2022-11-27T12:34:12.453Z,2.83
2022-11-27T12:36:57.914Z,3.00
2022-11-27T12:39:41.198Z,2.70
2022-11-27T12:42:40.823Z,3.03
2022-11-27T12:45:25.531Z,2.53
2022-11-27T12:47:55.985Z,2.90
2022-11-27T12:50:43.110Z,3.10
2022-11-27T12:53:24.729Z,2.80
2022-11-27T12:56:01.144Z,2.93
2022-11-27T12:58:36.485Z,2.70
2022-11-27T13:01:26.415Z,2.63
2022-11-27T13:03:56.883Z,2.50
2022-11-27T13:06:26.901Z,2.60
2022-11-27T13:09:02.650Z,2.50
2022-11-27T13:11:33.143Z,2.40
2022-11-27T13:14:04.185Z,2.27
2022-11-27T13:16:34.850Z,2.60
2022-11-27T13:19:20.501Z,2.30
2022-11-27T13:21:48.356Z,2.40
2022-11-27T13:24:15.533Z,2.37
2022-11-27T13:26:57.784Z,2.83
2022-11-27T13:29:30.743Z,2.50
2022-11-27T13:31:59.568Z,2.60
2022-11-27T13:34:28.409Z,2.53
2022-11-27T13:36:57.666Z,2.47
2022-11-27T13:39:28.064Z,2.53
2022-11-27T13:42:10.060Z,2.50
2022-11-27T13:44:40.783Z,2.30
2022-11-27T13:47:19.731Z,2.47
2022-11-27T13:49:47.941Z,2.40
2022-11-27T13:52:16.435Z,2.47
2022-11-27T13:55:02.022Z,2.83
2022-11-27T13:57:30.132Z,2.97
2022-11-27T14:00:05.407Z,2.60
2022-11-27T14:02:41.453Z,2.53
2022-11-27T14:05:09.089Z,2.43
2022-11-27T14:07:38.415Z,2.83
2022-11-27T14:10:16.184Z,2.77
2022-11-27T14:12:43.514Z,2.70
2022-11-27T14:15:21.431Z,2.77
2022-11-27T14:17:49.902Z,2.60
2022-11-27T14:20:17.013Z,2.70
2022-11-27T14:23:10.067Z,2.73
2022-11-27T14:25:33.666Z,3.00
2022-11-27T14:28:04.594Z,3.10
2022-11-27T14:30:36.785Z,2.80
2022-11-27T14:33:04.477Z,2.80
2022-11-27T14:35:31.791Z,2.73
2022-11-27T14:38:09.151Z,3.17
2022-11-27T14:40:37.580Z,3.07
2022-11-27T14:43:08.609Z,3.00
2022-11-27T14:45:35.777Z,3.20
2022-11-27T14:48:03.341Z,4.13
2022-11-27T14:50:30.401Z,3.37
2022-11-27T14:52:57.911Z,3.57
2022-11-27T14:55:27.929Z,3.10
2022-11-27T14:57:58.792Z,3.43
2022-11-27T15:00:32.322Z,2.97
2022-11-27T15:03:09.381Z,3.20
2022-11-27T15:05:38.139Z,3.00
2022-11-27T15:08:09.804Z,3.33
2022-11-27T15:10:38.971Z,3.23
2022-11-27T15:13:06.585Z,3.27
2022-11-27T15:15:37.919Z,3.40
2022-11-27T15:18:06.924Z,3.40
2022-11-27T15:20:36.920Z,3.50
2022-11-27T15:23:04.233Z,3.13
2022-11-27T15:25:36.547Z,3.90
2022-11-27T15:28:04.224Z,3.20
2022-11-27T15:30:31.352Z,3.43
2022-11-27T15:32:58.477Z,3.60
2022-11-27T15:35:27.168Z,3.53
2022-11-27T15:37:55.349Z,3.73
2022-11-27T15:40:33.598Z,3.27
2022-11-27T15:43:00.704Z,3.40
2022-11-27T15:45:28.967Z,3.80
2022-11-27T15:48:02.617Z,3.60
2022-11-27T15:50:30.481Z,3.50
2022-11-27T15:52:57.755Z,3.70
2022-11-27T15:55:25.319Z,3.50
2022-11-27T15:57:52.438Z,3.17
2022-11-27T16:00:19.824Z,3.37
2022-11-27T16:02:46.944Z,2.93
2022-11-27T16:05:14.060Z,3.33
2022-11-27T16:07:41.158Z,3.33
2022-11-27T16:10:08.725Z,3.40
2022-11-27T16:12:35.866Z,3.30
2022-11-27T16:15:02.969Z,3.40
2022-11-27T16:17:30.041Z,3.10
2022-11-27T16:19:57.165Z,3.43
2022-11-27T16:22:24.370Z,3.33
2022-11-27T16:24:51.577Z,3.20
2022-11-27T16:27:18.647Z,3.77
2022-11-27T16:29:45.764Z,3.87
2022-11-27T16:32:13.264Z,3.77
2022-11-27T16:34:40.549Z,3.83
2022-11-27T16:37:07.795Z,3.80
2022-11-27T16:39:34.872Z,3.77
2022-11-27T16:42:01.915Z,3.50
2022-11-27T16:44:29.024Z,3.63
2022-11-27T16:46:56.085Z,3.97
2022-11-27T16:49:23.133Z,4.00
2022-11-27T16:51:50.230Z,3.93
2022-11-27T16:54:17.324Z,3.90
2022-11-27T16:56:44.445Z,3.43
2022-11-27T16:59:13.172Z,3.93
2022-11-27T17:01:41.535Z,4.00
2022-11-27T17:04:10.663Z,4.20
2022-11-27T17:06:39.159Z,4.10
2022-11-27T17:09:07.379Z,3.97
2022-11-27T17:11:35.648Z,3.67
2022-11-27T17:14:05.086Z,4.17
2022-11-27T17:16:32.370Z,3.87
2022-11-27T17:18:59.528Z,4.00
2022-11-27T17:21:27.846Z,3.90
2022-11-27T17:24:10.179Z,4.53
2022-11-27T17:26:45.096Z,3.37
2022-11-27T17:29:12.946Z,3.47
2022-11-27T17:31:40.180Z,3.63
2022-11-27T17:34:07.526Z,3.83
2022-11-27T17:36:37.057Z,3.80
2022-11-27T17:39:05.174Z,3.50
2022-11-27T17:41:33.189Z,3.67
2022-11-27T17:44:00.413Z,3.50
2022-11-27T17:46:28.650Z,3.80
2022-11-27T17:48:58.828Z,3.53
2022-11-27T17:51:26.358Z,3.33
2022-11-27T17:53:53.433Z,3.27
2022-11-27T17:56:20.918Z,3.47
2022-11-27T17:58:48.319Z,3.50
2022-11-27T18:01:17.002Z,3.27
2022-11-27T18:03:46.069Z,3.20
2022-11-27T18:06:13.756Z,3.63
2022-11-27T18:08:40.985Z,3.37
2022-11-27T18:11:09.281Z,3.87
2022-11-27T18:13:36.519Z,3.47
2022-11-27T18:16:04.608Z,3.47
2022-11-27T18:18:31.886Z,3.50
2022-11-27T18:20:59.688Z,3.77
2022-11-27T18:23:26.809Z,3.57
2022-11-27T18:25:53.898Z,3.47
2022-11-27T18:28:20.946Z,3.70
2022-11-27T18:30:48.042Z,4.13
2022-11-27T18:33:15.144Z,4.17
2022-11-27T18:35:43.005Z,4.20
2022-11-27T18:38:10.180Z,4.00
2022-11-27T18:40:41.253Z,4.27
2022-11-27T18:43:08.364Z,4.63
2022-11-27T18:45:35.595Z,4.67
2022-11-27T18:48:03.172Z,4.57
2022-11-27T18:50:30.243Z,5.30
2022-11-27T18:52:57.313Z,4.83
2022-11-27T18:55:24.335Z,5.17
2022-11-27T18:57:51.422Z,5.83
2022-11-27T19:00:18.724Z,5.60
2022-11-27T19:02:45.876Z,5.70
2022-11-27T19:05:12.955Z,5.67
2022-11-27T19:07:40.121Z,6.07
2022-11-27T19:10:07.669Z,6.70
2022-11-27T19:12:34.759Z,6.50
2022-11-27T19:15:01.847Z,6.37
2022-11-27T19:17:32.339Z,6.93
2022-11-27T19:19:59.765Z,7.03
2022-11-27T19:22:26.831Z,7.00
2022-11-27T19:24:53.885Z,6.87
2022-11-27T19:27:20.997Z,7.50
2022-11-27T19:29:48.873Z,6.73
2022-11-27T19:32:15.923Z,7.10
2022-11-27T19:34:43.223Z,6.73
2022-11-27T19:37:10.547Z,6.83
2022-11-27T19:39:37.619Z,7.53
2022-11-27T19:42:04.675Z,7.23
2022-11-27T19:44:31.777Z,7.53
2022-11-27T19:46:58.954Z,6.70
2022-11-27T19:49:26.729Z,7.10
2022-11-27T19:51:53.852Z,6.97
2022-11-27T19:54:21.769Z,7.13
2022-11-27T19:56:48.977Z,6.20
2022-11-27T19:59:16.019Z,7.17
2022-11-27T20:01:43.098Z,7.13
2022-11-27T20:04:11.299Z,6.80
2022-11-27T20:06:39.668Z,7.10
2022-11-27T20:09:07.206Z,7.00
2022-11-27T20:11:35.547Z,7.00
2022-11-27T20:14:04.200Z,7.63
2022-11-27T20:16:32.026Z,6.97
2022-11-27T20:18:59.227Z,7.50
2022-11-27T20:21:26.668Z,7.10
2022-11-27T20:23:54.491Z,7.07
2022-11-27T20:26:22.841Z,6.93
2022-11-27T20:28:50.425Z,6.40
2022-11-27T20:31:24.995Z,6.53
2022-11-27T20:33:53.650Z,7.37
2022-11-27T20:36:21.435Z,6.67
2022-11-27T20:38:48.676Z,7.20
2022-11-27T20:41:16.875Z,6.93
2022-11-27T20:43:44.359Z,7.10
2022-11-27T20:46:15.434Z,6.97
2022-11-27T20:48:42.956Z,6.93
2022-11-27T20:51:13.582Z,7.10
2022-11-27T20:53:40.884Z,6.67
2022-11-27T20:56:09.138Z,7.00
2022-11-27T20:58:36.886Z,6.87
2022-11-27T21:01:13.640Z,7.17
2022-11-27T21:03:40.783Z,7.30
2022-11-27T21:06:07.901Z,7.33
2022-11-27T21:08:35.017Z,7.73
2022-11-27T21:11:14.189Z,6.43
2022-11-27T21:13:41.304Z,7.53
2022-11-27T21:16:09.924Z,8.03
2022-11-27T21:18:37.152Z,6.97
2022-11-27T21:21:11.810Z,7.27
2022-11-27T21:23:39.333Z,7.17
2022-11-27T21:26:06.609Z,7.30
2022-11-27T21:28:34.378Z,7.47
2022-11-27T21:31:08.183Z,7.27
2022-11-27T21:33:35.432Z,7.97
2022-11-27T21:36:02.690Z,7.47
2022-11-27T21:38:29.821Z,7.60
2022-11-27T21:40:57.096Z,6.97
2022-11-27T21:43:24.218Z,7.43
2022-11-27T21:45:51.325Z,7.10
2022-11-27T21:48:18.423Z,7.10
2022-11-27T21:50:45.521Z,7.13
2022-11-27T21:53:12.625Z,6.57
2022-11-27T21:55:40.623Z,6.80
2022-11-27T21:58:07.944Z,6.83
2022-11-27T22:00:35.330Z,6.70
2022-11-27T22:03:02.438Z,6.23
2022-11-27T22:05:29.920Z,6.13
2022-11-27T22:07:56.973Z,6.33
2022-11-27T22:10:24.144Z,6.10
2022-11-27T22:12:51.171Z,5.73
2022-11-27T22:15:18.333Z,5.63
2022-11-27T22:17:45.386Z,5.40
2022-11-27T22:20:12.808Z,5.53
2022-11-27T22:22:39.928Z,5.40
2022-11-27T22:25:07.177Z,5.10
2022-11-27T22:27:34.261Z,5.60
2022-11-27T22:30:01.379Z,5.30
2022-11-27T22:32:28.517Z,5.13
2022-11-27T22:34:55.568Z,5.20
2022-11-27T22:37:22.653Z,5.37
2022-11-27T22:39:49.725Z,4.80
2022-11-27T22:42:16.779Z,5.00
2022-11-27T22:44:44.068Z,5.47
2022-11-27T22:47:11.337Z,4.77
2022-11-27T22:49:38.420Z,4.43
2022-11-27T22:52:05.646Z,4.27
2022-11-27T22:54:32.721Z,4.77
2022-11-27T22:56:59.779Z,4.90
2022-11-27T22:59:34.834Z,4.23
2022-11-27T23:02:02.891Z,4.90
2022-11-27T23:04:30.084Z,4.30
2022-11-27T23:06:57.181Z,4.43
2022-11-27T23:09:24.527Z,3.97
2022-11-27T23:11:51.694Z,5.07
2022-11-27T23:14:19.168Z,5.10
2022-11-27T23:16:46.326Z,4.53
2022-11-27T23:19:13.469Z,4.73
2022-11-27T23:21:40.559Z,4.53
2022-11-27T23:24:08.582Z,4.30
2022-11-27T23:26:35.897Z,4.87
2022-11-27T23:29:03.197Z,4.87
2022-11-27T23:31:35.441Z,4.80
2022-11-27T23:34:03.633Z,4.47
2022-11-27T23:36:31.350Z,4.30
2022-11-27T23:39:02.133Z,4.70
2022-11-27T23:41:29.356Z,4.53
2022-11-27T23:43:56.590Z,4.90
2022-11-27T23:46:26.119Z,4.47
2022-11-27T23:48:55.822Z,4.37
2022-11-27T23:51:24.499Z,4.30
2022-11-27T23:53:51.627Z,4.37
2022-11-27T23:56:20.838Z,4.40
2022-11-27T23:58:47.965Z,4.37
